Time;durP1;ratioP1;P1;durP2;ratioP2;P2;SDS_P1;SDS_P2;PMS_P1;PMS_P2;Temp;Humidity;BMP_temperature;BMP_pressure;BME280_temperature;BME280_humidity;BME280_pressure;Samples;Min_cycle;Max_cycle;Signal;HPM_P1;HPM_P2
2022/11/09 00:01:18;;;;;;;8.43;4.80;;;6.50;59.90;;;;;;5082386;27;46789;-65
2022/11/09 00:03:43;;;;;;;8.20;4.87;;;6.50;60.00;;;;;;5084976;27;47402;-66
2022/11/09 00:06:09;;;;;;;10.40;4.93;;;6.50;60.00;;;;;;5083826;27;45913;-64
2022/11/09 00:08:39;;;;;;;8.50;5.53;;;6.50;60.00;;;;;;5086426;27;46395;-67
2022/11/09 00:11:07;;;;;;;6.80;4.30;;;6.50;59.90;;;;;;5083633;27;45916;-64
2022/11/09 00:13:37;;;;;;;11.40;4.77;;;6.40;59.80;;;;;;5084009;27;47341;-64
2022/11/09 00:16:04;;;;;;;12.90;5.13;;;6.50;59.90;;;;;;5084106;27;45766;-65
2022/11/09 00:18:30;;;;;;;9.10;5.30;;;6.50;59.80;;;;;;5085252;27;46460;-66
2022/11/09 00:20:56;;;;;;;8.10;4.20;;;6.40;59.70;;;;;;5085420;27;46282;-65
2022/11/09 00:23:22;;;;;;;10.87;4.60;;;6.40;59.80;;;;;;5086262;27;46509;-64
2022/11/09 00:25:48;;;;;;;6.80;4.00;;;6.40;59.60;;;;;;5086695;27;46435;-65
2022/11/09 00:28:14;;;;;;;7.73;4.17;;;6.50;59.60;;;;;;5083084;27;46417;-67
2022/11/09 00:30:40;;;;;;;7.37;3.93;;;6.50;58.30;;;;;;5088041;27;46455;-64
2022/11/09 00:33:06;;;;;;;5.57;3.40;;;6.60;59.20;;;;;;5089434;27;47830;-65
2022/11/09 00:35:32;;;;;;;5.97;3.53;;;6.70;59.40;;;;;;5090039;27;46326;-65
2022/11/09 00:37:57;;;;;;;7.40;4.20;;;6.80;59.30;;;;;;5086583;27;46468;-64
2022/11/09 00:40:23;;;;;;;6.33;3.80;;;6.70;59.30;;;;;;5089678;27;46329;-65
2022/11/09 00:42:48;;;;;;;6.07;3.60;;;6.50;59.50;;;;;;5089556;27;47764;-65
2022/11/09 00:45:14;;;;;;;5.97;3.70;;;6.40;59.90;;;;;;5088719;27;46410;-65
2022/11/09 00:47:39;;;;;;;6.03;3.03;;;6.20;60.00;;;;;;5089078;27;46437;-65
2022/11/09 00:50:06;;;;;;;10.33;4.43;;;6.30;58.90;;;;;;5086685;27;46392;-65
2022/11/09 00:52:31;;;;;;;4.70;3.13;;;6.30;59.90;;;;;;5087508;27;49317;-66
2022/11/09 00:54:57;;;;;;;6.83;3.87;;;6.40;59.60;;;;;;5087399;27;46361;-65
2022/11/09 00:57:22;;;;;;;6.50;3.70;;;6.50;59.70;;;;;;5090885;27;46392;-64
2022/11/09 00:59:48;;;;;;;14.47;3.87;;;6.60;59.60;;;;;;5085550;27;46490;-64
2022/11/09 01:02:13;;;;;;;8.07;4.40;;;6.70;58.60;;;;;;5086924;27;47216;-66
2022/11/09 01:04:39;;;;;;;6.77;3.93;;;6.80;59.50;;;;;;5087943;27;46797;-65
2022/11/09 01:07:06;;;;;;;7.60;3.87;;;6.80;59.50;;;;;;5089305;27;46816;-65
2022/11/09 01:09:32;;;;;;;6.73;4.57;;;6.90;59.40;;;;;;5088148;27;46528;-65
2022/11/09 01:11:57;;;;;;;6.97;4.50;;;6.90;58.20;;;;;;5085922;27;46432;-64
2022/11/09 01:14:23;;;;;;;8.83;4.07;;;6.90;59.20;;;;;;5083253;27;46452;-64
2022/11/09 01:16:49;;;;;;;9.57;4.60;;;7.00;59.10;;;;;;5085460;27;46478;-66
2022/11/09 01:19:14;;;;;;;6.87;3.47;;;7.00;59.00;;;;;;5086611;27;46487;-64
2022/11/09 01:21:40;;;;;;;6.37;3.70;;;7.00;58.90;;;;;;5085401;27;47103;-65
2022/11/09 01:24:06;;;;;;;6.00;3.53;;;7.00;58.90;;;;;;5084171;27;46377;-65
2022/11/09 01:26:32;;;;;;;6.20;3.57;;;7.00;59.10;;;;;;5086536;27;46528;-66
2022/11/09 01:28:58;;;;;;;9.13;3.87;;;6.90;59.10;;;;;;5088596;27;46615;-66
2022/11/09 01:31:23;;;;;;;11.67;4.60;;;6.90;58.10;;;;;;5086775;27;46338;-64
2022/11/09 01:33:49;;;;;;;8.03;4.23;;;6.90;59.20;;;;;;5087722;27;45921;-66
2022/11/09 01:36:22;;;;;;;6.13;4.00;;;6.70;59.50;;;;;;5083864;27;46456;-64
2022/11/09 01:38:49;;;;;;;8.83;3.90;;;6.60;59.60;;;;;;5088400;27;46360;-64
2022/11/09 01:41:23;;;;;;;7.20;4.10;;;6.50;59.80;;;;;;5090877;27;46582;-65
2022/11/09 01:44:13;;;;;;;6.90;4.30;;;6.40;59.90;;;;;;5086344;27;46430;-64
2022/11/09 01:46:47;;;;;;;7.50;3.97;;;6.40;59.80;;;;;;5087302;27;46593;-65
2022/11/09 01:49:42;;;;;;;8.70;3.37;;;6.40;59.80;;;;;;5093249;27;45818;-64
2022/11/09 01:52:23;;;;;;;7.27;4.10;;;6.30;58.80;;;;;;5084854;27;46771;-65
2022/11/09 01:55:02;;;;;;;6.60;3.70;;;6.30;59.80;;;;;;5088251;27;46372;-66
2022/11/09 01:57:44;;;;;;;5.97;3.97;;;6.20;59.80;;;;;;5087282;27;46384;-64
2022/11/09 02:00:16;;;;;;;7.63;3.83;;;6.10;58.90;;;;;;5089201;27;46422;-65
2022/11/09 02:02:46;;;;;;;5.70;3.70;;;6.10;60.00;;;;;;5088005;27;46413;-63
2022/11/09 02:05:15;;;;;;;7.10;4.30;;;6.10;60.00;;;;;;5085970;27;46565;-64
2022/11/09 02:07:42;;;;;;;10.17;4.17;;;6.00;60.00;;;;;;5088361;27;46631;-64
2022/11/09 02:10:26;;;;;;;9.53;3.83;;;6.00;59.00;;;;;;5087773;27;46504;-63
2022/11/09 02:12:53;;;;;;;7.37;3.90;;;5.90;59.90;;;;;;5089300;27;46270;-65
2022/11/09 02:15:20;;;;;;;9.30;3.83;;;5.90;60.00;;;;;;5082623;27;46432;-64
2022/11/09 02:17:51;;;;;;;12.20;4.10;;;5.80;60.20;;;;;;5091420;27;46354;-65
2022/11/09 02:20:17;;;;;;;9.67;4.10;;;5.70;59.30;;;;;;5082056;27;46421;-65
2022/11/09 02:22:43;;;;;;;6.90;3.43;;;5.70;60.30;;;;;;5084981;27;46450;-64
2022/11/09 02:25:11;;;;;;;6.23;3.60;;;5.70;60.20;;;;;;5082765;27;46285;-65
2022/11/09 02:27:38;;;;;;;4.57;2.90;;;5.70;60.30;;;;;;5085730;27;46460;-65
2022/11/09 02:30:05;;;;;;;5.93;3.90;;;5.70;59.20;;;;;;5086137;27;46597;-63
2022/11/09 02:32:31;;;;;;;6.97;3.60;;;5.70;60.10;;;;;;5080838;27;47609;-64
2022/11/09 02:34:56;;;;;;;5.90;3.33;;;5.70;60.10;;;;;;5089930;27;46370;-65
2022/11/09 02:37:36;;;;;;;6.03;3.67;;;5.70;60.00;;;;;;5085421;27;45957;-65
2022/11/09 02:40:06;;;;;;;4.77;2.87;;;5.80;60.00;;;;;;5087730;27;45869;-64
2022/11/09 02:42:32;;;;;;;12.03;3.80;;;5.70;60.00;;;;;;5085411;27;46545;-65
2022/11/09 02:44:58;;;;;;;5.87;2.50;;;5.80;60.00;;;;;;5084950;27;46381;-65
2022/11/09 02:47:25;;;;;;;8.80;2.93;;;5.90;59.70;;;;;;5081078;27;45939;-65
2022/11/09 02:49:50;;;;;;;6.70;2.80;;;5.90;59.60;;;;;;5088144;27;46065;-64
2022/11/09 02:52:17;;;;;;;5.23;2.70;;;6.00;58.40;;;;;;5083677;27;46443;-66
2022/11/09 02:54:42;;;;;;;5.13;2.63;;;6.10;59.40;;;;;;5084348;27;46666;-66
2022/11/09 02:57:08;;;;;;;3.83;2.43;;;6.10;59.20;;;;;;5084750;27;46358;-65
2022/11/09 02:59:34;;;;;;;7.13;2.37;;;6.20;59.00;;;;;;5082754;27;46313;-66
2022/11/09 03:01:59;;;;;;;4.90;2.50;;;6.30;58.00;;;;;;5087932;27;48182;-65
2022/11/09 03:04:25;;;;;;;3.43;2.00;;;6.40;59.10;;;;;;5084726;27;46363;-65
2022/11/09 03:06:51;;;;;;;4.40;2.50;;;6.40;58.90;;;;;;5088757;27;46264;-66
2022/11/09 03:09:17;;;;;;;5.10;3.10;;;6.50;58.80;;;;;;5082823;27;46736;-64
2022/11/09 03:11:43;;;;;;;11.67;5.80;;;6.50;57.50;;;;;;5083987;27;46392;-65
2022/11/09 03:14:09;;;;;;;8.33;3.53;;;6.50;58.60;;;;;;5084413;27;45984;-64
2022/11/09 03:16:36;;;;;;;5.53;2.33;;;6.60;58.40;;;;;;5087295;27;46419;-65
2022/11/09 03:19:02;;;;;;;4.03;2.10;;;6.60;58.30;;;;;;5087463;27;46355;-64
2022/11/09 03:21:28;;;;;;;4.97;2.70;;;6.60;58.30;;;;;;5085956;27;46582;-66
2022/11/09 03:23:54;;;;;;;4.60;3.17;;;6.60;58.40;;;;;;5084102;27;46411;-64
2022/11/09 03:26:20;;;;;;;10.77;3.03;;;6.60;58.50;;;;;;5087684;27;46445;-66
2022/11/09 03:28:46;;;;;;;6.83;2.40;;;6.50;58.60;;;;;;5086035;27;46090;-64
2022/11/09 03:31:11;;;;;;;10.73;2.47;;;6.40;58.50;;;;;;5083878;27;46590;-67
2022/11/09 03:33:37;;;;;;;4.10;2.60;;;6.30;58.80;;;;;;5085960;27;46460;-66
2022/11/09 03:36:03;;;;;;;4.07;2.50;;;6.20;57.90;;;;;;5080430;27;46326;-64
2022/11/09 03:38:29;;;;;;;5.77;1.90;;;6.10;59.10;;;;;;5085654;27;46420;-65
2022/11/09 03:40:55;;;;;;;6.53;2.53;;;6.10;59.20;;;;;;5080162;27;47350;-66
2022/11/09 03:43:20;;;;;;;4.40;2.13;;;6.00;59.20;;;;;;5085226;27;46468;-64
2022/11/09 03:45:46;;;;;;;5.00;2.70;;;6.00;59.30;;;;;;5087279;27;46381;-64
2022/11/09 03:48:13;;;;;;;4.93;2.40;;;5.90;59.50;;;;;;5083691;27;46371;-64
2022/11/09 03:50:39;;;;;;;4.30;2.10;;;5.90;59.50;;;;;;5086972;27;46893;-67
2022/11/09 03:53:08;;;;;;;4.03;2.13;;;5.80;59.60;;;;;;5079643;27;46687;-67
2022/11/09 03:55:34;;;;;;;3.00;1.87;;;5.80;59.70;;;;;;5086664;27;46521;-65
2022/11/09 03:58:01;;;;;;;7.57;2.53;;;5.70;59.60;;;;;;5090368;27;46351;-67
2022/11/09 04:00:27;;;;;;;6.20;2.17;;;5.70;59.60;;;;;;5094162;27;46408;-66
2022/11/09 04:02:53;;;;;;;3.77;2.20;;;5.70;59.50;;;;;;5091703;27;46321;-63
2022/11/09 04:05:19;;;;;;;5.07;2.57;;;5.60;59.50;;;;;;5089536;27;46442;-65
2022/11/09 04:07:57;;;;;;;4.90;2.53;;;5.60;59.60;;;;;;5092279;27;46674;-66
2022/11/09 04:10:24;;;;;;;5.33;2.70;;;5.50;58.70;;;;;;5091327;27;46550;-64
2022/11/09 04:12:50;;;;;;;4.40;2.20;;;5.50;59.60;;;;;;5092097;27;46395;-64
2022/11/09 04:15:16;;;;;;;13.60;2.57;;;5.50;59.70;;;;;;5087016;27;45879;-66
2022/11/09 04:17:43;;;;;;;6.93;2.03;;;5.40;59.50;;;;;;5092591;27;46325;-65
2022/11/09 04:20:10;;;;;;;4.90;2.13;;;5.30;58.80;;;;;;5091988;27;46376;-66
2022/11/09 04:22:36;;;;;;;3.10;2.20;;;5.30;59.90;;;;;;5092711;27;46794;-65
2022/11/09 04:25:03;;;;;;;5.43;2.53;;;5.30;59.80;;;;;;5093354;27;46433;-66
2022/11/09 04:27:29;;;;;;;10.87;2.20;;;5.30;59.60;;;;;;5091312;27;46411;-66
2022/11/09 04:29:54;;;;;;;5.30;2.57;;;5.40;59.70;;;;;;5091678;27;46519;-64
2022/11/09 04:32:20;;;;;;;3.90;2.70;;;5.30;58.50;;;;;;5092356;27;46377;-66
2022/11/09 04:34:45;;;;;;;6.40;2.43;;;5.30;59.40;;;;;;5089848;27;46367;-65
2022/11/09 04:37:11;;;;;;;4.57;2.17;;;5.40;59.40;;;;;;5094571;27;46448;-64
2022/11/09 04:39:37;;;;;;;4.97;2.20;;;5.50;59.30;;;;;;5084647;27;46058;-68
2022/11/09 04:42:02;;;;;;;11.47;2.43;;;5.40;58.00;;;;;;5086791;27;46442;-66
2022/11/09 04:44:28;;;;;;;5.47;2.80;;;5.40;59.30;;;;;;5090649;27;46057;-65
2022/11/09 04:46:54;;;;;;;3.00;1.80;;;5.30;59.40;;;;;;5089726;27;46360;-64
2022/11/09 04:49:20;;;;;;;2.77;1.83;;;5.20;58.80;;;;;;5090680;27;47383;-66
2022/11/09 04:51:45;;;;;;;3.17;2.03;;;5.10;59.00;;;;;;5083751;27;45862;-65
2022/11/09 04:54:11;;;;;;;3.13;2.03;;;5.10;60.00;;;;;;5091466;27;46553;-65
2022/11/09 04:56:37;;;;;;;3.70;2.40;;;5.00;60.00;;;;;;5091352;27;46466;-65
2022/11/09 04:59:02;;;;;;;4.30;2.27;;;5.10;60.30;;;;;;5092272;27;47467;-66
2022/11/09 05:01:28;;;;;;;6.07;2.93;;;5.00;59.10;;;;;;5089905;27;45952;-63
2022/11/09 05:03:53;;;;;;;9.23;2.60;;;5.00;60.00;;;;;;5090585;27;46510;-65
2022/11/09 05:06:31;;;;;;;110.20;52.20;;;5.00;60.00;;;;;;5090390;27;46526;-63
2022/11/09 05:08:58;;;;;;;42.03;19.33;;;5.10;60.10;;;;;;5086712;27;47454;-64
2022/11/09 05:11:24;;;;;;;5.90;3.40;;;5.30;58.90;;;;;;5089352;27;46356;-67
2022/11/09 05:13:52;;;;;;;4.10;2.30;;;5.30;59.90;;;;;;5088669;27;46388;-63
2022/11/09 05:16:19;;;;;;;5.30;2.80;;;5.30;59.90;;;;;;5083549;27;46448;-66
2022/11/09 05:18:44;;;;;;;28.30;11.57;;;5.30;59.80;;;;;;5085331;27;46562;-65
2022/11/09 05:21:10;;;;;;;79.43;33.93;;;5.40;59.80;;;;;;5090700;27;45865;-64
2022/11/09 05:26:20;;;;;;;6.93;3.70;;;5.80;59.60;;;;;;5088881;27;46684;-64
2022/11/09 05:28:46;;;;;;;30.77;12.63;;;5.70;59.50;;;;;;5083887;27;47532;-65
2022/11/09 05:31:11;;;;;;;5.27;2.77;;;5.80;59.40;;;;;;5087211;27;46353;-66
2022/11/09 05:33:37;;;;;;;10.67;4.87;;;5.90;59.10;;;;;;5090130;27;46219;-64
2022/11/09 05:36:02;;;;;;;5.30;3.03;;;6.10;58.90;;;;;;5087689;27;46424;-66
2022/11/09 05:38:28;;;;;;;5.70;2.90;;;6.20;58.60;;;;;;5085810;27;46814;-65
2022/11/09 05:40:54;;;;;;;4.67;2.63;;;6.40;57.30;;;;;;5084364;27;46504;-64
2022/11/09 05:43:20;;;;;;;6.87;3.40;;;6.40;57.20;;;;;;5087320;27;46333;-64
2022/11/09 05:45:46;;;;;;;5.07;2.43;;;6.50;58.10;;;;;;5090449;27;46076;-66
2022/11/09 05:48:14;;;;;;;9.63;4.77;;;6.60;58.00;;;;;;5092965;27;46493;-65
2022/11/09 05:50:41;;;;;;;3.37;2.00;;;6.70;57.80;;;;;;5086443;27;46631;-66
2022/11/09 05:53:07;;;;;;;5.10;2.43;;;6.80;57.80;;;;;;5086570;27;45887;-64
2022/11/09 05:55:33;;;;;;;3.90;2.20;;;6.80;57.80;;;;;;5080166;27;46310;-64
2022/11/09 05:57:58;;;;;;;7.47;3.17;;;6.80;58.00;;;;;;5085914;27;46420;-64
2022/11/09 06:00:25;;;;;;;11.73;5.60;;;6.80;57.30;;;;;;5088508;27;46398;-65
2022/11/09 06:02:51;;;;;;;15.97;7.37;;;6.90;58.40;;;;;;5084408;27;46352;-64
2022/11/09 06:05:17;;;;;;;5.77;3.20;;;6.80;58.30;;;;;;5082731;27;46392;-67
2022/11/09 06:07:42;;;;;;;5.40;3.00;;;6.80;58.40;;;;;;5085616;27;47654;-66
2022/11/09 06:10:08;;;;;;;8.50;4.33;;;6.80;57.40;;;;;;5085181;27;46920;-65
2022/11/09 06:12:34;;;;;;;4.80;2.10;;;6.80;58.40;;;;;;5084268;27;46447;-64
2022/11/09 06:15:00;;;;;;;8.37;2.93;;;6.80;58.50;;;;;;5083512;27;46494;-65
2022/11/09 06:17:25;;;;;;;7.97;3.23;;;6.90;58.40;;;;;;5084622;27;46665;-64
2022/11/09 06:19:51;;;;;;;4.20;2.30;;;6.90;58.40;;;;;;5086707;27;46369;-66
2022/11/09 06:22:17;;;;;;;2.40;1.50;;;6.90;57.20;;;;;;5087658;27;46403;-66
2022/11/09 06:24:42;;;;;;;6.90;2.77;;;7.00;58.20;;;;;;5082730;27;46630;-66
2022/11/09 06:27:08;;;;;;;5.43;2.70;;;7.00;58.20;;;;;;5083476;27;47597;-66
2022/11/09 06:29:34;;;;;;;3.17;1.83;;;7.00;58.30;;;;;;5086679;27;46297;-65
2022/11/09 06:31:59;;;;;;;4.80;2.17;;;6.80;57.30;;;;;;5085770;27;46517;-64
2022/11/09 06:34:25;;;;;;;6.50;2.27;;;6.70;58.80;;;;;;5085550;27;46359;-64
2022/11/09 06:36:51;;;;;;;7.60;3.70;;;6.60;58.90;;;;;;5086897;27;49239;-65
2022/11/09 06:39:16;;;;;;;5.43;2.80;;;6.60;59.10;;;;;;5086530;27;46371;-64
2022/11/09 06:41:42;;;;;;;8.90;3.23;;;6.60;58.00;;;;;;5087213;27;46503;-64
2022/11/09 06:44:08;;;;;;;15.50;2.20;;;6.70;59.20;;;;;;5086384;27;46354;-65
2022/11/09 06:46:33;;;;;;;11.43;4.20;;;6.70;59.20;;;;;;5087027;27;46555;-65
2022/11/09 06:49:00;;;;;;;3.40;1.50;;;6.70;59.20;;;;;;5084112;27;46398;-65
2022/11/09 06:51:26;;;;;;;5.63;2.47;;;6.80;57.90;;;;;;5080841;27;46438;-64
2022/11/09 06:53:52;;;;;;;4.10;2.70;;;6.90;58.90;;;;;;5083272;27;45947;-63
2022/11/09 06:56:17;;;;;;;6.43;2.90;;;6.90;58.70;;;;;;5085115;27;47589;-65
2022/11/09 06:58:43;;;;;;;5.07;2.63;;;6.60;58.10;;;;;;5080116;27;46490;-65
2022/11/09 07:01:10;;;;;;;7.07;3.77;;;7.10;57.10;;;;;;5083424;27;46457;-64
2022/11/09 07:03:37;;;;;;;6.47;3.70;;;7.10;58.20;;;;;;5087993;27;46634;-65
2022/11/09 07:06:05;;;;;;;3.43;2.30;;;7.20;57.80;;;;;;5082860;27;46320;-64
2022/11/09 07:08:31;;;;;;;5.80;2.20;;;7.30;57.60;;;;;;5080637;27;46464;-65
2022/11/09 07:11:05;;;;;;;6.00;2.30;;;7.60;56.20;;;;;;5079827;27;46519;-65
2022/11/09 07:13:31;;;;;;;4.37;1.80;;;7.60;57.10;;;;;;5082648;27;46543;-65
2022/11/09 07:15:57;;;;;;;3.53;2.07;;;7.80;56.70;;;;;;5082384;27;46799;-65
2022/11/09 07:18:23;;;;;;;4.00;2.20;;;7.90;56.20;;;;;;5084723;27;45898;-63
2022/11/09 07:20:48;;;;;;;5.30;2.30;;;8.20;54.60;;;;;;5082786;27;46516;-65
2022/11/09 07:23:14;;;;;;;12.20;5.30;;;8.20;55.50;;;;;;5082034;27;45846;-65
2022/11/09 07:25:39;;;;;;;4.60;2.33;;;8.40;55.10;;;;;;5082382;27;46424;-63
2022/11/09 07:28:07;;;;;;;10.17;3.43;;;8.50;54.80;;;;;;5079503;27;46378;-65
2022/11/09 07:30:33;;;;;;;7.13;3.63;;;8.60;54.60;;;;;;5098926;27;46458;-64
2022/11/09 07:32:59;;;;;;;7.43;3.47;;;8.80;54.50;;;;;;5083189;27;46518;-63
2022/11/09 07:35:26;;;;;;;8.17;4.20;;;8.90;54.30;;;;;;5082161;27;46677;-67
2022/11/09 07:37:51;;;;;;;12.63;4.20;;;9.10;54.20;;;;;;5082369;27;46465;-65
2022/11/09 07:40:18;;;;;;;11.93;6.33;;;9.40;52.90;;;;;;5081749;27;46536;-66
2022/11/09 07:42:43;;;;;;;13.93;7.43;;;9.40;53.80;;;;;;5081798;27;46700;-64
2022/11/09 07:45:09;;;;;;;10.70;5.70;;;9.50;53.50;;;;;;5083194;27;46294;-64
2022/11/09 07:47:35;;;;;;;10.43;5.50;;;9.70;52.90;;;;;;5082970;27;46398;-64
2022/11/09 07:50:00;;;;;;;8.93;5.57;;;9.80;52.40;;;;;;5080508;27;46245;-66
2022/11/09 07:52:26;;;;;;;7.63;4.73;;;10.00;50.60;;;;;;5082477;27;47846;-67
2022/11/09 07:54:51;;;;;;;4.83;2.70;;;10.20;51.80;;;;;;5082423;27;47460;-65
2022/11/09 07:57:17;;;;;;;6.60;3.33;;;10.40;52.00;;;;;;5083512;27;46728;-62
2022/11/09 07:59:43;;;;;;;3.80;2.13;;;10.50;51.70;;;;;;5080302;27;46562;-66
2022/11/09 08:02:09;;;;;;;4.83;3.10;;;10.60;50.10;;;;;;5083775;27;46463;-63
2022/11/09 08:04:35;;;;;;;4.80;2.07;;;10.70;51.20;;;;;;5082591;27;46661;-66
2022/11/09 08:07:00;;;;;;;3.03;2.00;;;10.80;50.80;;;;;;5081966;27;46546;-65
2022/11/09 08:09:27;;;;;;;3.90;1.83;;;11.00;50.70;;;;;;5082557;27;46484;-63
2022/11/09 08:11:52;;;;;;;4.70;2.33;;;11.10;49.30;;;;;;5080559;27;46403;-63
2022/11/09 08:14:18;;;;;;;3.83;1.70;;;11.20;50.30;;;;;;5080867;27;48895;-64
2022/11/09 08:16:44;;;;;;;4.93;2.30;;;11.30;50.00;;;;;;5085131;27;46339;-63
2022/11/09 08:19:09;;;;;;;3.00;1.70;;;11.40;49.80;;;;;;5084748;27;46498;-64
2022/11/09 08:21:36;;;;;;;4.37;2.10;;;11.50;49.40;;;;;;5085855;27;46600;-64
2022/11/09 08:24:02;;;;;;;5.33;2.10;;;11.60;50.50;;;;;;5088023;27;46552;-63
2022/11/09 08:26:27;;;;;;;6.33;1.80;;;11.60;49.10;;;;;;5082626;27;46466;-64
2022/11/09 08:28:54;;;;;;;3.07;1.77;;;11.70;49.00;;;;;;5080407;27;45881;-65
2022/11/09 08:31:20;;;;;;;6.30;2.10;;;11.80;48.80;;;;;;5073725;27;46445;-64
2022/11/09 08:33:46;;;;;;;8.80;1.87;;;12.10;48.40;;;;;;5082025;27;46576;-66
2022/11/09 08:36:14;;;;;;;8.43;1.97;;;12.30;49.10;;;;;;5079937;27;46421;-66
2022/11/09 08:38:40;;;;;;;5.90;2.60;;;12.40;47.60;;;;;;5080151;27;46427;-65
2022/11/09 08:41:06;;;;;;;6.60;1.97;;;12.60;46.10;;;;;;5081745;27;46373;-64
2022/11/09 08:43:31;;;;;;;6.80;2.10;;;12.60;47.20;;;;;;5081174;27;46845;-66
2022/11/09 08:45:57;;;;;;;9.50;2.30;;;12.70;47.00;;;;;;5083013;27;46378;-64
2022/11/09 08:48:22;;;;;;;8.23;2.30;;;12.70;46.90;;;;;;5085616;27;46487;-66
2022/11/09 08:50:53;;;;;;;5.73;2.27;;;12.80;48.20;;;;;;5084950;27;46597;-66
2022/11/09 08:53:19;;;;;;;6.33;2.63;;;13.00;46.70;;;;;;5083768;27;46689;-64
2022/11/09 08:55:45;;;;;;;21.30;2.93;;;13.00;46.40;;;;;;5082813;27;45919;-64
2022/11/09 08:58:11;;;;;;;5.63;2.40;;;13.10;46.20;;;;;;5084581;27;46378;-63
2022/11/09 09:00:37;;;;;;;6.00;2.50;;;13.40;44.60;;;;;;5087176;27;45907;-67
2022/11/09 09:03:06;;;;;;;4.70;2.30;;;13.40;45.70;;;;;;5084401;27;46102;-67
2022/11/09 09:05:35;;;;;;;7.60;2.90;;;13.40;45.70;;;;;;5083845;27;46477;-66
2022/11/09 09:08:01;;;;;;;6.70;2.53;;;13.40;46.10;;;;;;5083524;27;46532;-65
2022/11/09 09:10:28;;;;;;;4.67;2.23;;;13.50;46.30;;;;;;5082298;27;46762;-65
2022/11/09 09:12:54;;;;;;;4.53;2.33;;;13.60;46.30;;;;;;5084542;27;48828;-66
2022/11/09 09:15:20;;;;;;;6.13;2.40;;;13.70;45.80;;;;;;5087356;27;46480;-64
2022/11/09 09:17:45;;;;;;;3.67;1.97;;;13.80;45.70;;;;;;5085743;27;46477;-65
2022/11/09 09:20:11;;;;;;;4.37;2.50;;;14.00;44.50;;;;;;5086336;27;46639;-65
2022/11/09 09:22:37;;;;;;;7.77;2.50;;;14.00;45.50;;;;;;5086064;27;46865;-65
2022/11/09 09:25:03;;;;;;;6.73;2.33;;;14.20;45.40;;;;;;5086420;27;46865;-65
2022/11/09 09:27:29;;;;;;;6.43;2.60;;;14.30;45.10;;;;;;5086446;27;46319;-65
2022/11/09 09:29:55;;;;;;;6.10;2.27;;;14.60;45.00;;;;;;5088137;27;46661;-65
2022/11/09 09:32:21;;;;;;;6.23;2.20;;;14.70;43.30;;;;;;5084516;27;46800;-67
2022/11/09 09:34:46;;;;;;;11.10;3.63;;;14.90;44.60;;;;;;5089184;27;46446;-64
2022/11/09 09:37:12;;;;;;;14.30;6.77;;;15.00;44.20;;;;;;5088196;27;46255;-66
2022/11/09 09:39:37;;;;;;;27.60;10.40;;;15.20;44.00;;;;;;5091338;27;46481;-66
2022/11/09 09:42:17;;;;;;;15.50;7.93;;;15.30;42.50;;;;;;5084563;27;46391;-64
2022/11/09 09:44:46;;;;;;;9.43;4.30;;;15.40;43.70;;;;;;5088346;27;46312;-67
2022/11/09 09:47:23;;;;;;;11.80;3.13;;;15.50;43.50;;;;;;5083460;27;46452;-63
2022/11/09 09:50:00;;;;;;;88.57;44.53;;;15.70;43.70;;;;;;5085258;27;46500;-66
2022/11/09 09:52:59;;;;;;;11.80;2.90;;;16.00;42.80;;;;;;5081766;27;46525;-65
2022/11/09 09:55:28;;;;;;;3.67;1.80;;;16.20;43.50;;;;;;5080555;27;46672;-66
2022/11/09 09:58:01;;;;;;;7.43;2.33;;;16.30;43.80;;;;;;5086811;27;46508;-64
2022/11/09 10:00:27;;;;;;;3.97;1.73;;;16.60;42.60;;;;;;5083347;27;46324;-64
2022/11/09 10:02:53;;;;;;;3.37;1.73;;;16.70;43.60;;;;;;5085559;27;46510;-64
2022/11/09 10:05:27;;;;;;;3.20;1.80;;;16.80;43.30;;;;;;5080617;27;46531;-63
2022/11/09 10:08:11;;;;;;;4.87;2.43;;;16.90;43.30;;;;;;5113691;27;46462;-66
2022/11/09 10:11:01;;;;;;;3.03;1.73;;;17.10;43.30;;;;;;5082776;27;46484;-63
2022/11/09 10:13:39;;;;;;;5.33;1.70;;;17.40;43.10;;;;;;5082455;27;46609;-65
2022/11/09 10:16:35;;;;;;;4.87;1.87;;;17.30;43.40;;;;;;5083858;27;47000;-65
2022/11/09 10:19:52;;;;;;;3.60;1.53;;;17.10;43.80;;;;;;5080371;27;46400;-65
2022/11/09 10:22:40;;;;;;;4.50;1.50;;;16.90;44.50;;;;;;5052949;27;46618;-64
2022/11/09 10:25:14;;;;;;;5.33;2.10;;;16.70;44.60;;;;;;5083851;27;47755;-64
2022/11/09 10:27:47;;;;;;;15.40;2.57;;;16.50;44.40;;;;;;5087225;27;46471;-66
2022/11/09 10:30:18;;;;;;;9.70;1.80;;;16.20;43.10;;;;;;5083374;27;46528;-65
2022/11/09 10:32:50;;;;;;;4.97;1.90;;;16.20;44.10;;;;;;5078967;27;46407;-66
2022/11/09 10:35:20;;;;;;;2.80;1.53;;;16.20;44.10;;;;;;5082101;27;46773;-66
2022/11/09 10:37:48;;;;;;;5.00;1.63;;;16.30;44.20;;;;;;5082821;27;46425;-64
2022/11/09 10:40:32;;;;;;;9.20;2.10;;;16.30;43.20;;;;;;5084234;27;45849;-65
2022/11/09 10:43:01;;;;;;;4.90;1.53;;;16.40;44.30;;;;;;5078238;27;46427;-65
2022/11/09 10:45:38;;;;;;;3.70;1.60;;;16.30;44.20;;;;;;5079915;27;46737;-65
2022/11/09 10:48:06;;;;;;;5.70;1.80;;;16.10;44.00;;;;;;5082114;27;46428;-64
2022/11/09 10:50:47;;;;;;;3.40;1.73;;;15.90;43.80;;;;;;5079493;27;46484;-65
2022/11/09 10:53:20;;;;;;;4.47;1.90;;;16.00;43.90;;;;;;5080950;27;46493;-66
2022/11/09 10:55:54;;;;;;;3.53;1.90;;;16.00;43.90;;;;;;5086513;27;47341;-64
2022/11/09 10:58:38;;;;;;;3.57;1.40;;;16.20;44.10;;;;;;5082335;27;46448;-65
2022/11/09 11:01:22;;;;;;;4.00;1.77;;;16.10;44.00;;;;;;5083274;27;46488;-66
2022/11/09 11:03:56;;;;;;;3.60;1.60;;;16.20;44.20;;;;;;5079443;27;46240;-63
2022/11/09 11:06:21;;;;;;;4.30;1.67;;;16.10;44.00;;;;;;5081325;27;46508;-65
2022/11/09 11:09:09;;;;;;;5.60;1.50;;;16.20;44.10;;;;;;5081395;27;46341;-62
2022/11/09 11:11:37;;;;;;;5.33;1.63;;;16.30;44.30;;;;;;5083389;27;46365;-66
2022/11/09 11:14:17;;;;;;;3.77;1.80;;;16.40;44.30;;;;;;5081490;27;46176;-65
2022/11/09 11:16:44;;;;;;;2.40;1.40;;;16.50;44.40;;;;;;5113253;27;47871;-66
2022/11/09 11:19:31;;;;;;;3.23;1.57;;;16.50;44.40;;;;;;5084870;27;46417;-62
2022/11/09 11:22:22;;;;;;;2.90;1.57;;;16.50;43.90;;;;;;5078311;27;46496;-66
2022/11/09 11:24:55;;;;;;;3.87;1.53;;;16.50;44.30;;;;;;5084381;27;46549;-65
2022/11/09 11:27:45;;;;;;;5.80;1.77;;;16.50;44.40;;;;;;5113130;27;46771;-66
2022/11/09 11:30:21;;;;;;;5.20;1.90;;;16.50;43.30;;;;;;5078952;27;46467;-66
2022/11/09 11:32:47;;;;;;;3.10;1.50;;;16.50;44.40;;;;;;5083858;27;46622;-65
2022/11/09 11:35:29;;;;;;;4.70;1.70;;;16.30;44.20;;;;;;5083309;27;46456;-64
2022/11/09 11:38:06;;;;;;;3.53;1.60;;;16.30;44.20;;;;;;5078769;27;47253;-64
2022/11/09 11:40:49;;;;;;;3.00;1.80;;;16.40;44.30;;;;;;5077339;27;46412;-66
2022/11/09 11:43:41;;;;;;;6.50;2.00;;;16.30;44.30;;;;;;5080369;27;46463;-65
2022/11/09 11:46:30;;;;;;;3.83;1.67;;;16.40;44.30;;;;;;5076706;27;46224;-66
2022/11/09 11:49:10;;;;;;;6.10;1.90;;;16.70;43.70;;;;;;5117549;27;46656;-67
2022/11/09 11:51:49;;;;;;;7.97;1.67;;;16.90;43.30;;;;;;5082621;27;46490;-64
2022/11/09 11:54:45;;;;;;;4.50;1.83;;;17.00;43.20;;;;;;5085474;27;46397;-67
2022/11/09 11:57:31;;;;;;;4.10;1.90;;;17.00;43.40;;;;;;5085606;27;46443;-65
2022/11/09 12:00:22;;;;;;;4.57;1.80;;;16.90;43.60;;;;;;5083396;27;46581;-65
2022/11/09 12:03:04;;;;;;;4.50;1.53;;;16.90;43.80;;;;;;5079823;27;46541;-67
2022/11/09 12:05:42;;;;;;;4.00;1.47;;;16.70;43.80;;;;;;5082896;27;46364;-66
2022/11/09 12:08:35;;;;;;;3.80;1.70;;;16.50;44.40;;;;;;5081196;27;45870;-65
2022/11/09 12:11:19;;;;;;;3.27;1.57;;;16.40;44.30;;;;;;5082349;27;46675;-66
2022/11/09 12:13:58;;;;;;;3.63;1.40;;;16.30;44.20;;;;;;5086496;27;46364;-66
2022/11/09 12:16:30;;;;;;;10.60;2.03;;;16.20;44.80;;;;;;5084762;27;46512;-66
2022/11/09 12:19:15;;;;;;;5.63;1.70;;;16.10;44.90;;;;;;5080253;27;46388;-70
2022/11/09 12:21:56;;;;;;;5.40;1.80;;;16.00;45.40;;;;;;5087142;27;46808;-64
2022/11/09 12:24:24;;;;;;;5.80;1.60;;;16.00;45.50;;;;;;5078676;27;46730;-63
2022/11/09 12:27:30;;;;;;;4.77;1.97;;;15.90;45.80;;;;;;5086831;27;46907;-65
2022/11/09 12:30:02;;;;;;;11.57;1.80;;;15.90;46.00;;;;;;5084242;27;46376;-67
2022/11/09 12:32:49;;;;;;;2.90;1.60;;;15.90;45.00;;;;;;5113795;27;49190;-65
2022/11/09 12:35:35;;;;;;;3.17;1.70;;;15.90;45.00;;;;;;5084952;27;46811;-67
2022/11/09 12:38:24;;;;;;;2.93;1.73;;;15.90;46.10;;;;;;5084383;27;46350;-67
2022/11/09 12:41:04;;;;;;;5.10;1.73;;;16.10;46.10;;;;;;5084708;27;47276;-65
2022/11/09 12:43:52;;;;;;;5.23;2.83;;;16.10;46.00;;;;;;5086108;27;47921;-68
2022/11/09 12:46:23;;;;;;;3.70;1.83;;;16.20;45.80;;;;;;5084452;27;46427;-68
2022/11/09 12:48:49;;;;;;;4.03;1.43;;;16.30;45.40;;;;;;5082949;27;46453;-66
2022/11/09 12:51:15;;;;;;;5.83;1.83;;;16.50;45.30;;;;;;5083773;27;47689;-66
2022/11/09 12:53:41;;;;;;;3.83;1.90;;;16.50;45.40;;;;;;5085638;27;46480;-70
2022/11/09 12:56:30;;;;;;;14.47;6.80;;;16.50;45.20;;;;;;5082944;27;46479;-71
2022/11/09 12:59:19;;;;;;;7.27;3.87;;;16.60;44.60;;;;;;5083383;27;46763;-67
2022/11/09 13:01:49;;;;;;;5.00;2.70;;;16.70;44.60;;;;;;5084765;27;46413;-68
2022/11/09 13:04:18;;;;;;;3.30;1.80;;;16.80;44.70;;;;;;5080334;27;47405;-67
2022/11/09 13:07:12;;;;;;;3.80;1.80;;;16.80;44.70;;;;;;5089050;27;46294;-66